Terminal Aerodrome Forecast
Issued by NWS

Home | Current Version | Previous Version | Text Only | Print | Product List | Glossary On
Versions: 1 2 3 4 5 6 7 8 9 10 11 12 13 14 15 16 17 18 19 20 21 22
792
FTUS43 KLSX 182340
TAFUIN
TAF
KUIN 182340Z 1900/1924 15010KT 6SM -SHRA OVC050
      TEMPO 1900/1901 3SM TSRA BKN030CB
     FM190200 VRB04KT P6SM SCT050 BKN120
     FM191100 VRB03KT 2SM BR BKN010
     FM191400 18006KT P6SM SCT030 BKN250=

USA.gov is the U.S. government's official web portal to all federal, state and local government web resources and services.